sensor_id;sensor_type;location;lat;lon;timestamp;P1;durP1;ratioP1;P2;durP2;ratioP2
56736;SDS011;42618;51.226;4.910;2022-07-10T00:00:02;4.65;;;1.20;;
56736;SDS011;42618;51.226;4.910;2022-07-10T00:02:37;3.65;;;1.25;;
56736;SDS011;42618;51.226;4.910;2022-07-10T00:05:06;4.00;;;1.30;;
56736;SDS011;42618;51.226;4.910;2022-07-10T00:07:33;4.78;;;1.27;;
56736;SDS011;42618;51.226;4.910;2022-07-10T00:10:00;6.95;;;1.30;;
56736;SDS011;42618;51.226;4.910;2022-07-10T00:12:27;4.90;;;1.45;;
56736;SDS011;42618;51.226;4.910;2022-07-10T00:14:54;5.43;;;1.42;;
56736;SDS011;42618;51.226;4.910;2022-07-10T00:17:21;3.20;;;1.40;;
56736;SDS011;42618;51.226;4.910;2022-07-10T00:19:47;3.95;;;1.60;;
56736;SDS011;42618;51.226;4.910;2022-07-10T00:22:14;4.18;;;1.55;;
56736;SDS011;42618;51.226;4.910;2022-07-10T00:24:41;10.65;;;1.60;;
56736;SDS011;42618;51.226;4.910;2022-07-10T00:27:07;8.73;;;1.90;;
56736;SDS011;42618;51.226;4.910;2022-07-10T00:29:34;6.45;;;1.88;;
56736;SDS011;42618;51.226;4.910;2022-07-10T00:32:01;2.58;;;1.27;;
56736;SDS011;42618;51.226;4.910;2022-07-10T00:34:28;6.97;;;1.93;;
56736;SDS011;42618;51.226;4.910;2022-07-10T00:36:54;6.30;;;1.75;;
56736;SDS011;42618;51.226;4.910;2022-07-10T00:39:21;4.82;;;1.50;;
56736;SDS011;42618;51.226;4.910;2022-07-10T00:41:48;4.85;;;1.52;;
56736;SDS011;42618;51.226;4.910;2022-07-10T00:44:14;4.40;;;1.30;;
56736;SDS011;42618;51.226;4.910;2022-07-10T00:46:41;7.13;;;1.50;;
56736;SDS011;42618;51.226;4.910;2022-07-10T00:49:08;9.70;;;1.80;;
56736;SDS011;42618;51.226;4.910;2022-07-10T00:51:35;6.05;;;1.67;;
56736;SDS011;42618;51.226;4.910;2022-07-10T00:54:04;3.15;;;1.50;;
56736;SDS011;42618;51.226;4.910;2022-07-10T00:56:32;3.03;;;1.30;;
56736;SDS011;42618;51.226;4.910;2022-07-10T00:58:59;6.65;;;1.40;;
56736;SDS011;42618;51.226;4.910;2022-07-10T01:01:25;3.58;;;1.40;;
56736;SDS011;42618;51.226;4.910;2022-07-10T01:03:52;6.05;;;1.35;;
56736;SDS011;42618;51.226;4.910;2022-07-10T01:06:19;5.70;;;1.60;;
56736;SDS011;42618;51.226;4.910;2022-07-10T01:08:45;6.13;;;1.92;;
56736;SDS011;42618;51.226;4.910;2022-07-10T01:11:13;2.28;;;1.45;;
56736;SDS011;42618;51.226;4.910;2022-07-10T01:13:41;3.33;;;1.90;;
56736;SDS011;42618;51.226;4.910;2022-07-10T01:16:10;4.13;;;1.65;;
56736;SDS011;42618;51.226;4.910;2022-07-10T01:18:37;3.35;;;1.50;;
56736;SDS011;42618;51.226;4.910;2022-07-10T01:21:05;3.92;;;1.38;;
56736;SDS011;42618;51.226;4.910;2022-07-10T01:23:32;3.17;;;1.58;;
56736;SDS011;42618;51.226;4.910;2022-07-10T01:25:58;8.07;;;1.48;;
56736;SDS011;42618;51.226;4.910;2022-07-10T01:28:27;3.53;;;1.75;;
56736;SDS011;42618;51.226;4.910;2022-07-10T01:30:54;6.53;;;2.70;;
56736;SDS011;42618;51.226;4.910;2022-07-10T01:33:22;7.68;;;1.63;;
56736;SDS011;42618;51.226;4.910;2022-07-10T01:35:48;4.90;;;1.80;;
56736;SDS011;42618;51.226;4.910;2022-07-10T01:38:15;6.75;;;1.80;;
56736;SDS011;42618;51.226;4.910;2022-07-10T01:40:42;4.35;;;1.63;;
56736;SDS011;42618;51.226;4.910;2022-07-10T01:43:08;5.75;;;1.40;;
56736;SDS011;42618;51.226;4.910;2022-07-10T01:45:35;4.55;;;1.85;;
56736;SDS011;42618;51.226;4.910;2022-07-10T01:48:02;6.85;;;1.85;;
56736;SDS011;42618;51.226;4.910;2022-07-10T01:50:29;2.20;;;1.50;;
56736;SDS011;42618;51.226;4.910;2022-07-10T01:52:55;5.00;;;1.80;;
56736;SDS011;42618;51.226;4.910;2022-07-10T01:55:22;6.50;;;1.90;;
56736;SDS011;42618;51.226;4.910;2022-07-10T01:57:49;4.80;;;1.70;;
56736;SDS011;42618;51.226;4.910;2022-07-10T02:00:15;5.38;;;2.20;;
56736;SDS011;42618;51.226;4.910;2022-07-10T02:02:42;9.47;;;1.83;;
56736;SDS011;42618;51.226;4.910;2022-07-10T02:05:29;6.63;;;1.80;;
56736;SDS011;42618;51.226;4.910;2022-07-10T02:07:56;9.48;;;2.50;;
56736;SDS011;42618;51.226;4.910;2022-07-10T02:10:22;8.45;;;1.70;;
56736;SDS011;42618;51.226;4.910;2022-07-10T02:12:49;6.18;;;1.70;;
56736;SDS011;42618;51.226;4.910;2022-07-10T02:15:16;9.27;;;1.90;;
56736;SDS011;42618;51.226;4.910;2022-07-10T02:17:42;3.83;;;1.33;;
56736;SDS011;42618;51.226;4.910;2022-07-10T02:20:09;7.15;;;1.85;;
56736;SDS011;42618;51.226;4.910;2022-07-10T02:22:37;5.35;;;1.80;;
56736;SDS011;42618;51.226;4.910;2022-07-10T02:25:04;4.90;;;1.60;;
56736;SDS011;42618;51.226;4.910;2022-07-10T02:27:31;5.82;;;1.77;;
56736;SDS011;42618;51.226;4.910;2022-07-10T02:29:58;5.93;;;1.92;;
56736;SDS011;42618;51.226;4.910;2022-07-10T02:32:24;7.10;;;2.42;;
56736;SDS011;42618;51.226;4.910;2022-07-10T02:34:51;5.18;;;2.28;;
56736;SDS011;42618;51.226;4.910;2022-07-10T02:37:18;6.70;;;2.03;;
56736;SDS011;42618;51.226;4.910;2022-07-10T02:39:45;4.93;;;1.90;;
56736;SDS011;42618;51.226;4.910;2022-07-10T02:42:11;4.72;;;2.00;;
56736;SDS011;42618;51.226;4.910;2022-07-10T02:44:38;7.15;;;2.38;;
56736;SDS011;42618;51.226;4.910;2022-07-10T02:47:05;6.43;;;2.38;;
56736;SDS011;42618;51.226;4.910;2022-07-10T02:49:31;7.10;;;2.40;;
56736;SDS011;42618;51.226;4.910;2022-07-10T02:51:59;8.25;;;2.13;;
56736;SDS011;42618;51.226;4.910;2022-07-10T02:54:26;3.35;;;2.10;;
56736;SDS011;42618;51.226;4.910;2022-07-10T02:56:53;5.28;;;2.30;;
56736;SDS011;42618;51.226;4.910;2022-07-10T02:59:19;3.45;;;2.33;;
56736;SDS011;42618;51.226;4.910;2022-07-10T03:01:46;5.60;;;2.05;;
56736;SDS011;42618;51.226;4.910;2022-07-10T03:04:13;4.30;;;2.10;;
56736;SDS011;42618;51.226;4.910;2022-07-10T03:06:40;5.45;;;2.30;;
56736;SDS011;42618;51.226;4.910;2022-07-10T03:09:06;6.35;;;2.20;;
56736;SDS011;42618;51.226;4.910;2022-07-10T03:11:33;4.85;;;2.20;;
56736;SDS011;42618;51.226;4.910;2022-07-10T03:14:00;4.93;;;2.25;;
56736;SDS011;42618;51.226;4.910;2022-07-10T03:16:26;3.63;;;2.13;;
56736;SDS011;42618;51.226;4.910;2022-07-10T03:18:53;6.20;;;2.30;;
56736;SDS011;42618;51.226;4.910;2022-07-10T03:21:20;5.75;;;2.30;;
56736;SDS011;42618;51.226;4.910;2022-07-10T03:23:46;9.25;;;2.88;;
56736;SDS011;42618;51.226;4.910;2022-07-10T03:26:13;4.65;;;2.38;;
56736;SDS011;42618;51.226;4.910;2022-07-10T03:28:40;5.32;;;2.45;;
56736;SDS011;42618;51.226;4.910;2022-07-10T03:33:34;7.10;;;2.40;;
56736;SDS011;42618;51.226;4.910;2022-07-10T03:36:01;5.25;;;2.63;;
56736;SDS011;42618;51.226;4.910;2022-07-10T03:38:28;3.58;;;2.17;;
56736;SDS011;42618;51.226;4.910;2022-07-10T03:40:55;7.55;;;2.42;;
56736;SDS011;42618;51.226;4.910;2022-07-10T03:43:21;5.72;;;2.72;;
56736;SDS011;42618;51.226;4.910;2022-07-10T03:45:48;4.85;;;2.60;;
56736;SDS011;42618;51.226;4.910;2022-07-10T03:48:14;4.85;;;2.65;;
56736;SDS011;42618;51.226;4.910;2022-07-10T03:50:41;4.40;;;2.50;;
56736;SDS011;42618;51.226;4.910;2022-07-10T03:53:08;8.70;;;3.00;;
56736;SDS011;42618;51.226;4.910;2022-07-10T03:55:35;4.78;;;2.80;;
56736;SDS011;42618;51.226;4.910;2022-07-10T03:58:01;5.45;;;2.40;;
56736;SDS011;42618;51.226;4.910;2022-07-10T04:00:31;5.60;;;2.45;;
56736;SDS011;42618;51.226;4.910;2022-07-10T04:02:59;7.07;;;2.85;;
56736;SDS011;42618;51.226;4.910;2022-07-10T04:05:28;5.57;;;2.67;;
56736;SDS011;42618;51.226;4.910;2022-07-10T04:07:55;3.83;;;2.63;;
56736;SDS011;42618;51.226;4.910;2022-07-10T04:10:23;10.30;;;2.47;;
56736;SDS011;42618;51.226;4.910;2022-07-10T04:12:51;6.82;;;2.58;;
56736;SDS011;42618;51.226;4.910;2022-07-10T04:15:18;6.20;;;2.93;;
56736;SDS011;42618;51.226;4.910;2022-07-10T04:17:45;6.43;;;2.35;;
56736;SDS011;42618;51.226;4.910;2022-07-10T04:20:13;7.88;;;2.90;;
56736;SDS011;42618;51.226;4.910;2022-07-10T04:22:40;6.50;;;2.90;;
56736;SDS011;42618;51.226;4.910;2022-07-10T04:25:06;5.05;;;2.47;;
56736;SDS011;42618;51.226;4.910;2022-07-10T04:27:34;7.72;;;2.45;;
56736;SDS011;42618;51.226;4.910;2022-07-10T04:30:02;6.28;;;2.72;;
56736;SDS011;42618;51.226;4.910;2022-07-10T04:32:29;7.00;;;2.70;;
56736;SDS011;42618;51.226;4.910;2022-07-10T04:34:56;5.50;;;2.33;;
56736;SDS011;42618;51.226;4.910;2022-07-10T04:37:23;8.27;;;2.67;;
56736;SDS011;42618;51.226;4.910;2022-07-10T04:39:50;6.43;;;2.50;;
56736;SDS011;42618;51.226;4.910;2022-07-10T04:42:24;5.25;;;2.67;;
56736;SDS011;42618;51.226;4.910;2022-07-10T04:44:50;5.60;;;2.33;;
56736;SDS011;42618;51.226;4.910;2022-07-10T04:47:17;9.73;;;2.67;;
56736;SDS011;42618;51.226;4.910;2022-07-10T04:49:44;6.07;;;2.63;;
56736;SDS011;42618;51.226;4.910;2022-07-10T04:52:10;8.10;;;2.50;;
56736;SDS011;42618;51.226;4.910;2022-07-10T04:54:37;3.90;;;2.50;;
56736;SDS011;42618;51.226;4.910;2022-07-10T04:57:04;4.03;;;2.33;;
56736;SDS011;42618;51.226;4.910;2022-07-10T04:59:31;9.55;;;2.63;;
56736;SDS011;42618;51.226;4.910;2022-07-10T05:01:57;4.15;;;2.40;;
56736;SDS011;42618;51.226;4.910;2022-07-10T05:04:24;6.33;;;2.50;;
56736;SDS011;42618;51.226;4.910;2022-07-10T05:06:51;11.63;;;2.67;;
56736;SDS011;42618;51.226;4.910;2022-07-10T05:09:18;7.15;;;2.63;;
56736;SDS011;42618;51.226;4.910;2022-07-10T05:11:46;7.00;;;2.60;;
56736;SDS011;42618;51.226;4.910;2022-07-10T05:14:13;5.13;;;2.53;;
56736;SDS011;42618;51.226;4.910;2022-07-10T05:16:39;6.78;;;2.60;;
56736;SDS011;42618;51.226;4.910;2022-07-10T05:19:06;6.72;;;2.05;;
56736;SDS011;42618;51.226;4.910;2022-07-10T05:21:33;7.53;;;2.55;;
56736;SDS011;42618;51.226;4.910;2022-07-10T05:24:00;5.43;;;2.50;;
56736;SDS011;42618;51.226;4.910;2022-07-10T05:26:27;5.75;;;2.20;;
56736;SDS011;42618;51.226;4.910;2022-07-10T05:28:53;6.97;;;2.40;;
56736;SDS011;42618;51.226;4.910;2022-07-10T05:31:20;3.45;;;2.20;;
56736;SDS011;42618;51.226;4.910;2022-07-10T05:33:47;4.78;;;2.20;;
56736;SDS011;42618;51.226;4.910;2022-07-10T05:36:13;3.78;;;2.10;;
56736;SDS011;42618;51.226;4.910;2022-07-10T05:38:40;8.18;;;2.30;;
56736;SDS011;42618;51.226;4.910;2022-07-10T05:41:07;6.43;;;1.80;;
56736;SDS011;42618;51.226;4.910;2022-07-10T05:43:34;5.80;;;2.13;;
56736;SDS011;42618;51.226;4.910;2022-07-10T05:46:01;7.30;;;2.15;;
56736;SDS011;42618;51.226;4.910;2022-07-10T05:48:28;6.53;;;2.30;;
56736;SDS011;42618;51.226;4.910;2022-07-10T05:50:54;5.05;;;2.10;;
56736;SDS011;42618;51.226;4.910;2022-07-10T05:53:41;7.47;;;1.90;;
56736;SDS011;42618;51.226;4.910;2022-07-10T05:56:08;5.10;;;2.40;;
56736;SDS011;42618;51.226;4.910;2022-07-10T05:58:35;9.23;;;2.45;;
56736;SDS011;42618;51.226;4.910;2022-07-10T06:01:02;11.45;;;2.45;;
56736;SDS011;42618;51.226;4.910;2022-07-10T06:03:29;8.80;;;2.00;;
56736;SDS011;42618;51.226;4.910;2022-07-10T06:05:55;4.10;;;2.10;;
56736;SDS011;42618;51.226;4.910;2022-07-10T06:08:22;5.68;;;2.20;;
56736;SDS011;42618;51.226;4.910;2022-07-10T06:10:49;4.20;;;2.10;;
56736;SDS011;42618;51.226;4.910;2022-07-10T06:13:15;7.72;;;1.90;;
56736;SDS011;42618;51.226;4.910;2022-07-10T06:15:42;5.85;;;2.20;;
56736;SDS011;42618;51.226;4.910;2022-07-10T06:18:09;6.05;;;2.05;;
56736;SDS011;42618;51.226;4.910;2022-07-10T06:20:36;3.35;;;1.70;;
56736;SDS011;42618;51.226;4.910;2022-07-10T06:23:02;4.32;;;1.83;;
56736;SDS011;42618;51.226;4.910;2022-07-10T06:25:29;3.40;;;1.70;;
56736;SDS011;42618;51.226;4.910;2022-07-10T06:27:56;5.13;;;1.52;;
56736;SDS011;42618;51.226;4.910;2022-07-10T06:30:22;6.60;;;2.00;;
56736;SDS011;42618;51.226;4.910;2022-07-10T06:32:49;5.25;;;1.77;;
56736;SDS011;42618;51.226;4.910;2022-07-10T06:35:16;5.13;;;1.63;;
56736;SDS011;42618;51.226;4.910;2022-07-10T06:37:42;8.13;;;2.25;;
56736;SDS011;42618;51.226;4.910;2022-07-10T06:40:11;4.80;;;1.70;;
56736;SDS011;42618;51.226;4.910;2022-07-10T06:42:41;9.00;;;1.73;;
56736;SDS011;42618;51.226;4.910;2022-07-10T06:45:10;4.82;;;1.60;;
56736;SDS011;42618;51.226;4.910;2022-07-10T06:47:37;8.30;;;1.55;;
56736;SDS011;42618;51.226;4.910;2022-07-10T06:50:26;6.43;;;1.40;;
56736;SDS011;42618;51.226;4.910;2022-07-10T06:52:57;3.58;;;1.67;;
56736;SDS011;42618;51.226;4.910;2022-07-10T06:55:24;7.30;;;1.48;;
56736;SDS011;42618;51.226;4.910;2022-07-10T06:57:52;3.42;;;1.20;;
56736;SDS011;42618;51.226;4.910;2022-07-10T07:00:19;6.95;;;1.27;;
56736;SDS011;42618;51.226;4.910;2022-07-10T07:02:46;5.75;;;1.55;;
56736;SDS011;42618;51.226;4.910;2022-07-10T07:05:14;6.95;;;1.20;;
56736;SDS011;42618;51.226;4.910;2022-07-10T07:07:40;4.00;;;1.55;;
56736;SDS011;42618;51.226;4.910;2022-07-10T07:10:08;2.53;;;0.95;;
56736;SDS011;42618;51.226;4.910;2022-07-10T07:12:35;2.78;;;0.82;;
56736;SDS011;42618;51.226;4.910;2022-07-10T07:15:02;5.57;;;1.20;;
56736;SDS011;42618;51.226;4.910;2022-07-10T07:17:29;4.47;;;0.80;;
56736;SDS011;42618;51.226;4.910;2022-07-10T07:20:12;3.30;;;0.80;;
56736;SDS011;42618;51.226;4.910;2022-07-10T07:22:58;9.10;;;1.08;;
56736;SDS011;42618;51.226;4.910;2022-07-10T07:25:37;6.32;;;0.98;;
56736;SDS011;42618;51.226;4.910;2022-07-10T07:28:08;3.53;;;0.90;;
56736;SDS011;42618;51.226;4.910;2022-07-10T07:30:36;2.97;;;0.90;;
56736;SDS011;42618;51.226;4.910;2022-07-10T07:33:03;5.00;;;0.73;;
56736;SDS011;42618;51.226;4.910;2022-07-10T07:35:30;6.90;;;0.85;;
56736;SDS011;42618;51.226;4.910;2022-07-10T07:37:57;4.47;;;0.70;;
56736;SDS011;42618;51.226;4.910;2022-07-10T07:40:24;9.05;;;0.82;;
56736;SDS011;42618;51.226;4.910;2022-07-10T07:42:51;10.00;;;0.93;;
56736;SDS011;42618;51.226;4.910;2022-07-10T07:45:20;4.32;;;0.70;;
56736;SDS011;42618;51.226;4.910;2022-07-10T07:47:49;3.53;;;0.90;;
56736;SDS011;42618;51.226;4.910;2022-07-10T07:50:22;6.15;;;0.82;;
56736;SDS011;42618;51.226;4.910;2022-07-10T07:52:52;3.13;;;0.68;;
56736;SDS011;42618;51.226;4.910;2022-07-10T07:55:20;3.05;;;0.65;;
56736;SDS011;42618;51.226;4.910;2022-07-10T07:57:47;4.03;;;0.70;;
56736;SDS011;42618;51.226;4.910;2022-07-10T08:00:17;5.47;;;0.88;;
56736;SDS011;42618;51.226;4.910;2022-07-10T08:02:44;2.43;;;0.50;;
56736;SDS011;42618;51.226;4.910;2022-07-10T08:05:11;1.33;;;0.60;;
56736;SDS011;42618;51.226;4.910;2022-07-10T08:07:39;5.43;;;0.90;;
56736;SDS011;42618;51.226;4.910;2022-07-10T08:10:09;4.53;;;0.90;;
56736;SDS011;42618;51.226;4.910;2022-07-10T08:12:37;2.25;;;0.82;;
56736;SDS011;42618;51.226;4.910;2022-07-10T08:15:08;3.78;;;0.70;;
56736;SDS011;42618;51.226;4.910;2022-07-10T08:17:37;3.45;;;1.00;;
56736;SDS011;42618;51.226;4.910;2022-07-10T08:22:32;1.80;;;0.80;;
56736;SDS011;42618;51.226;4.910;2022-07-10T08:24:59;4.03;;;0.98;;
56736;SDS011;42618;51.226;4.910;2022-07-10T08:27:26;3.28;;;1.02;;
56736;SDS011;42618;51.226;4.910;2022-07-10T08:29:53;10.30;;;1.45;;
56736;SDS011;42618;51.226;4.910;2022-07-10T08:32:20;6.35;;;1.13;;
56736;SDS011;42618;51.226;4.910;2022-07-10T08:34:47;3.78;;;1.00;;
56736;SDS011;42618;51.226;4.910;2022-07-10T08:37:15;6.75;;;1.23;;
56736;SDS011;42618;51.226;4.910;2022-07-10T08:39:42;3.47;;;0.88;;
56736;SDS011;42618;51.226;4.910;2022-07-10T08:42:08;7.68;;;0.95;;
56736;SDS011;42618;51.226;4.910;2022-07-10T08:44:37;3.67;;;0.90;;
56736;SDS011;42618;51.226;4.910;2022-07-10T08:47:04;2.97;;;1.10;;
56736;SDS011;42618;51.226;4.910;2022-07-10T08:49:31;4.50;;;1.00;;
56736;SDS011;42618;51.226;4.910;2022-07-10T08:54:28;2.33;;;0.80;;
56736;SDS011;42618;51.226;4.910;2022-07-10T08:56:56;4.88;;;1.02;;
56736;SDS011;42618;51.226;4.910;2022-07-10T08:59:24;8.02;;;1.08;;
56736;SDS011;42618;51.226;4.910;2022-07-10T09:01:57;4.93;;;1.13;;
56736;SDS011;42618;51.226;4.910;2022-07-10T09:04:26;6.15;;;1.20;;
56736;SDS011;42618;51.226;4.910;2022-07-10T09:06:54;6.30;;;1.10;;
56736;SDS011;42618;51.226;4.910;2022-07-10T09:09:21;2.88;;;1.35;;
56736;SDS011;42618;51.226;4.910;2022-07-10T09:11:54;5.18;;;1.20;;
56736;SDS011;42618;51.226;4.910;2022-07-10T09:14:24;5.75;;;1.40;;
56736;SDS011;42618;51.226;4.910;2022-07-10T09:17:01;4.07;;;1.30;;
56736;SDS011;42618;51.226;4.910;2022-07-10T09:19:28;3.38;;;1.13;;
56736;SDS011;42618;51.226;4.910;2022-07-10T09:22:04;11.13;;;1.60;;
56736;SDS011;42618;51.226;4.910;2022-07-10T09:24:41;2.35;;;1.20;;
56736;SDS011;42618;51.226;4.910;2022-07-10T09:27:10;6.72;;;1.30;;
56736;SDS011;42618;51.226;4.910;2022-07-10T09:29:47;5.75;;;1.20;;
56736;SDS011;42618;51.226;4.910;2022-07-10T09:32:18;6.55;;;1.55;;
56736;SDS011;42618;51.226;4.910;2022-07-10T09:42:33;3.67;;;1.70;;
56736;SDS011;42618;51.226;4.910;2022-07-10T09:47:39;13.70;;;5.45;;
56736;SDS011;42618;51.226;4.910;2022-07-10T09:50:22;7.07;;;1.80;;
56736;SDS011;42618;51.226;4.910;2022-07-10T09:52:56;10.82;;;5.38;;
56736;SDS011;42618;51.226;4.910;2022-07-10T09:55:25;4.72;;;1.50;;
56736;SDS011;42618;51.226;4.910;2022-07-10T09:57:57;3.90;;;1.50;;
56736;SDS011;42618;51.226;4.910;2022-07-10T10:00:26;5.63;;;1.85;;
56736;SDS011;42618;51.226;4.910;2022-07-10T10:03:04;5.63;;;1.70;;
56736;SDS011;42618;51.226;4.910;2022-07-10T10:08:19;8.85;;;1.50;;
56736;SDS011;42618;51.226;4.910;2022-07-10T10:10:56;2.53;;;1.30;;
56736;SDS011;42618;51.226;4.910;2022-07-10T10:13:24;5.10;;;1.13;;
56736;SDS011;42618;51.226;4.910;2022-07-10T10:15:56;6.10;;;1.05;;
56736;SDS011;42618;51.226;4.910;2022-07-10T10:18:24;5.20;;;0.98;;
56736;SDS011;42618;51.226;4.910;2022-07-10T10:20:53;5.65;;;1.23;;
56736;SDS011;42618;51.226;4.910;2022-07-10T10:23:25;2.20;;;0.90;;
56736;SDS011;42618;51.226;4.910;2022-07-10T10:25:52;5.55;;;1.10;;
56736;SDS011;42618;51.226;4.910;2022-07-10T10:28:21;3.65;;;1.15;;
56736;SDS011;42618;51.226;4.910;2022-07-10T10:44:26;8.38;;;1.52;;
56736;SDS011;42618;51.226;4.910;2022-07-10T10:46:56;3.22;;;0.90;;
56736;SDS011;42618;51.226;4.910;2022-07-10T10:52:34;7.32;;;1.20;;
56736;SDS011;42618;51.226;4.910;2022-07-10T10:55:01;3.28;;;1.20;;
56736;SDS011;42618;51.226;4.910;2022-07-10T10:57:35;6.10;;;1.55;;
56736;SDS011;42618;51.226;4.910;2022-07-10T11:02:41;2.63;;;1.23;;
56736;SDS011;42618;51.226;4.910;2022-07-10T11:17:52;4.40;;;1.00;;
56736;SDS011;42618;51.226;4.910;2022-07-10T11:22:49;3.20;;;1.00;;
56736;SDS011;42618;51.226;4.910;2022-07-10T11:25:41;3.47;;;1.27;;
56736;SDS011;42618;51.226;4.910;2022-07-10T11:28:32;3.25;;;1.42;;
56736;SDS011;42618;51.226;4.910;2022-07-10T11:31:03;4.15;;;1.70;;
56736;SDS011;42618;51.226;4.910;2022-07-10T11:33:30;2.78;;;1.20;;
56736;SDS011;42618;51.226;4.910;2022-07-10T11:36:09;4.30;;;1.30;;
56736;SDS011;42618;51.226;4.910;2022-07-10T11:38:40;2.25;;;1.27;;
56736;SDS011;42618;51.226;4.910;2022-07-10T11:41:12;3.85;;;1.35;;
56736;SDS011;42618;51.226;4.910;2022-07-10T11:46:26;2.42;;;1.30;;
56736;SDS011;42618;51.226;4.910;2022-07-10T11:48:55;6.65;;;1.30;;
56736;SDS011;42618;51.226;4.910;2022-07-10T11:51:29;2.15;;;1.20;;
56736;SDS011;42618;51.226;4.910;2022-07-10T11:56:32;3.90;;;1.33;;
56736;SDS011;42618;51.226;4.910;2022-07-10T11:59:02;5.10;;;1.17;;
56736;SDS011;42618;51.226;4.910;2022-07-10T12:01:31;3.38;;;1.10;;
56736;SDS011;42618;51.226;4.910;2022-07-10T12:04:03;3.38;;;1.35;;
56736;SDS011;42618;51.226;4.910;2022-07-10T12:06:32;2.63;;;1.30;;
56736;SDS011;42618;51.226;4.910;2022-07-10T12:09:21;1.42;;;1.00;;
56736;SDS011;42618;51.226;4.910;2022-07-10T12:14:25;3.63;;;1.23;;
56736;SDS011;42618;51.226;4.910;2022-07-10T12:16:53;2.53;;;1.10;;
56736;SDS011;42618;51.226;4.910;2022-07-10T12:19:24;2.95;;;0.93;;
56736;SDS011;42618;51.226;4.910;2022-07-10T12:21:54;2.72;;;0.93;;
56736;SDS011;42618;51.226;4.910;2022-07-10T12:24:24;3.45;;;0.88;;
56736;SDS011;42618;51.226;4.910;2022-07-10T12:26:51;6.93;;;0.82;;
56736;SDS011;42618;51.226;4.910;2022-07-10T12:29:22;11.40;;;0.80;;
56736;SDS011;42618;51.226;4.910;2022-07-10T12:31:54;3.13;;;1.13;;
56736;SDS011;42618;51.226;4.910;2022-07-10T12:34:32;1.85;;;0.73;;
56736;SDS011;42618;51.226;4.910;2022-07-10T12:37:06;2.60;;;0.80;;
56736;SDS011;42618;51.226;4.910;2022-07-10T12:39:39;2.72;;;0.90;;
56736;SDS011;42618;51.226;4.910;2022-07-10T12:42:13;4.85;;;0.80;;
56736;SDS011;42618;51.226;4.910;2022-07-10T12:44:51;4.03;;;0.90;;
56736;SDS011;42618;51.226;4.910;2022-07-10T12:47:18;4.13;;;0.85;;
56736;SDS011;42618;51.226;4.910;2022-07-10T12:57:58;2.45;;;0.70;;
56736;SDS011;42618;51.226;4.910;2022-07-10T13:00:31;3.10;;;1.00;;
56736;SDS011;42618;51.226;4.910;2022-07-10T13:03:03;2.55;;;0.80;;
56736;SDS011;42618;51.226;4.910;2022-07-10T13:08:05;4.07;;;1.10;;
56736;SDS011;42618;51.226;4.910;2022-07-10T13:10:33;3.15;;;0.80;;
56736;SDS011;42618;51.226;4.910;2022-07-10T13:13:03;1.95;;;0.65;;
56736;SDS011;42618;51.226;4.910;2022-07-10T13:15:30;3.20;;;0.80;;
56736;SDS011;42618;51.226;4.910;2022-07-10T13:17:57;3.97;;;0.70;;
56736;SDS011;42618;51.226;4.910;2022-07-10T13:20:24;1.80;;;0.47;;
56736;SDS011;42618;51.226;4.910;2022-07-10T13:22:51;3.73;;;0.70;;
56736;SDS011;42618;51.226;4.910;2022-07-10T13:25:18;3.87;;;0.60;;
56736;SDS011;42618;51.226;4.910;2022-07-10T13:27:44;13.57;;;6.80;;
56736;SDS011;42618;51.226;4.910;2022-07-10T13:30:12;2.58;;;0.63;;
56736;SDS011;42618;51.226;4.910;2022-07-10T13:32:39;2.77;;;0.80;;
56736;SDS011;42618;51.226;4.910;2022-07-10T13:35:06;3.60;;;0.98;;
56736;SDS011;42618;51.226;4.910;2022-07-10T13:37:33;5.25;;;0.65;;
56736;SDS011;42618;51.226;4.910;2022-07-10T13:40:00;2.40;;;0.70;;
56736;SDS011;42618;51.226;4.910;2022-07-10T13:42:27;5.25;;;0.70;;
56736;SDS011;42618;51.226;4.910;2022-07-10T13:44:54;3.42;;;0.90;;
56736;SDS011;42618;51.226;4.910;2022-07-10T13:47:21;2.80;;;0.73;;
56736;SDS011;42618;51.226;4.910;2022-07-10T13:49:48;5.37;;;0.90;;
56736;SDS011;42618;51.226;4.910;2022-07-10T13:52:15;1.17;;;0.50;;
56736;SDS011;42618;51.226;4.910;2022-07-10T13:54:42;1.50;;;0.53;;
56736;SDS011;42618;51.226;4.910;2022-07-10T13:57:08;2.37;;;1.00;;
56736;SDS011;42618;51.226;4.910;2022-07-10T13:59:35;2.37;;;0.60;;
56736;SDS011;42618;51.226;4.910;2022-07-10T14:02:02;3.97;;;0.67;;
56736;SDS011;42618;51.226;4.910;2022-07-10T14:04:29;3.30;;;0.70;;
56736;SDS011;42618;51.226;4.910;2022-07-10T14:06:55;4.20;;;0.90;;
56736;SDS011;42618;51.226;4.910;2022-07-10T14:09:22;3.85;;;1.00;;
56736;SDS011;42618;51.226;4.910;2022-07-10T14:11:50;2.45;;;1.00;;
56736;SDS011;42618;51.226;4.910;2022-07-10T14:14:17;4.15;;;0.80;;
56736;SDS011;42618;51.226;4.910;2022-07-10T14:16:43;1.60;;;0.60;;
56736;SDS011;42618;51.226;4.910;2022-07-10T14:19:10;3.95;;;0.60;;
56736;SDS011;42618;51.226;4.910;2022-07-10T14:21:39;3.53;;;0.70;;
56736;SDS011;42618;51.226;4.910;2022-07-10T14:24:06;3.65;;;1.00;;
56736;SDS011;42618;51.226;4.910;2022-07-10T14:26:33;3.85;;;0.88;;
56736;SDS011;42618;51.226;4.910;2022-07-10T14:29:05;5.72;;;0.80;;
56736;SDS011;42618;51.226;4.910;2022-07-10T14:31:32;3.28;;;0.77;;
56736;SDS011;42618;51.226;4.910;2022-07-10T14:33:59;3.15;;;0.60;;
56736;SDS011;42618;51.226;4.910;2022-07-10T14:36:26;2.35;;;0.65;;
56736;SDS011;42618;51.226;4.910;2022-07-10T14:38:53;4.10;;;0.70;;
56736;SDS011;42618;51.226;4.910;2022-07-10T14:43:47;1.55;;;0.50;;
56736;SDS011;42618;51.226;4.910;2022-07-10T14:46:14;19.98;;;1.00;;
56736;SDS011;42618;51.226;4.910;2022-07-10T14:48:41;4.30;;;0.70;;
56736;SDS011;42618;51.226;4.910;2022-07-10T14:53:35;1.23;;;0.40;;
56736;SDS011;42618;51.226;4.910;2022-07-10T14:56:02;1.65;;;0.50;;
56736;SDS011;42618;51.226;4.910;2022-07-10T14:58:30;12.25;;;0.60;;
56736;SDS011;42618;51.226;4.910;2022-07-10T15:01:20;7.63;;;0.60;;
56736;SDS011;42618;51.226;4.910;2022-07-10T15:03:47;4.73;;;0.67;;
56736;SDS011;42618;51.226;4.910;2022-07-10T15:06:13;5.68;;;0.80;;
56736;SDS011;42618;51.226;4.910;2022-07-10T15:08:40;6.23;;;0.80;;
56736;SDS011;42618;51.226;4.910;2022-07-10T15:11:07;3.57;;;0.60;;
56736;SDS011;42618;51.226;4.910;2022-07-10T15:13:34;8.30;;;0.80;;
56736;SDS011;42618;51.226;4.910;2022-07-10T15:16:00;5.03;;;0.50;;
56736;SDS011;42618;51.226;4.910;2022-07-10T15:18:27;3.47;;;0.55;;
56736;SDS011;42618;51.226;4.910;2022-07-10T15:20:54;2.80;;;0.60;;
56736;SDS011;42618;51.226;4.910;2022-07-10T15:23:21;2.63;;;0.50;;
56736;SDS011;42618;51.226;4.910;2022-07-10T15:25:47;8.13;;;0.57;;
56736;SDS011;42618;51.226;4.910;2022-07-10T15:28:14;5.93;;;0.60;;
56736;SDS011;42618;51.226;4.910;2022-07-10T15:30:41;13.13;;;0.60;;
56736;SDS011;42618;51.226;4.910;2022-07-10T15:33:09;4.30;;;0.50;;
56736;SDS011;42618;51.226;4.910;2022-07-10T15:35:36;2.73;;;0.60;;
56736;SDS011;42618;51.226;4.910;2022-07-10T15:38:02;3.50;;;0.77;;
56736;SDS011;42618;51.226;4.910;2022-07-10T15:40:29;3.53;;;0.70;;
56736;SDS011;42618;51.226;4.910;2022-07-10T15:42:57;9.45;;;0.65;;
56736;SDS011;42618;51.226;4.910;2022-07-10T15:45:24;4.00;;;0.70;;
56736;SDS011;42618;51.226;4.910;2022-07-10T15:50:18;2.35;;;0.50;;
56736;SDS011;42618;51.226;4.910;2022-07-10T15:52:45;1.88;;;0.60;;
56736;SDS011;42618;51.226;4.910;2022-07-10T15:55:12;1.77;;;0.40;;
56736;SDS011;42618;51.226;4.910;2022-07-10T15:57:39;2.35;;;0.60;;
56736;SDS011;42618;51.226;4.910;2022-07-10T16:00:09;8.57;;;3.17;;
56736;SDS011;42618;51.226;4.910;2022-07-10T16:02:37;8.32;;;0.73;;
56736;SDS011;42618;51.226;4.910;2022-07-10T16:05:04;2.08;;;0.30;;
56736;SDS011;42618;51.226;4.910;2022-07-10T16:09:58;0.88;;;0.32;;
56736;SDS011;42618;51.226;4.910;2022-07-10T16:12:25;2.30;;;0.53;;
56736;SDS011;42618;51.226;4.910;2022-07-10T16:14:53;1.58;;;0.60;;
56736;SDS011;42618;51.226;4.910;2022-07-10T16:17:21;1.05;;;0.32;;